Time,TemperatureF,DewpointF,PressureIn,WindDirection,WindDirectionDegrees,WindSpeedMPH,WindSpeedGustMPH,Humidity,HourlyPrecipIn,Conditions,Clouds,dailyrainin,SoftwareType,DateUTC
2013-06-17 15:31:00,86.6,57.2,29.88,WNW,292,4.0,4.0,37,0.00,,---,26.80,VWS V14.01,2013-06-17 20:31:00,
2013-06-17 15:32:00,86.6,57.2,29.88,WNW,292,4.0,4.0,37,0.00,,---,0.00,VWS V14.01,2013-06-17 20:32:00,
2013-06-17 15:33:00,86.6,58.0,29.89,WNW,292,2.2,4.7,38,0.00,,---,0.00,VWS V14.01,2013-06-17 20:33:00,
2013-06-17 15:36:00,86.8,58.2,29.88,NNW,338,0.7,0.7,38,0.00,,---,0.00,VWS V14.01,2013-06-17 20:36:00,
2013-06-17 15:41:00,86.9,59.0,29.88,SSW,202,1.3,1.3,39,0.00,,---,0.00,VWS V14.01,2013-06-17 20:41:00,
2013-06-17 15:46:00,87.1,59.2,29.88,NNW,338,1.8,1.8,39,0.00,,---,0.00,VWS V14.01,2013-06-17 20:46:00,
2013-06-17 15:51:00,87.3,60.0,29.88,North,0,4.5,4.5,40,0.00,,---,0.00,VWS V14.01,2013-06-17 20:51:00,
2013-06-17 15:56:00,87.1,59.2,29.88,NNE,22,0.7,0.7,39,0.00,,---,0.00,VWS V14.01,2013-06-17 20:56:00,
2013-06-17 16:01:00,86.9,58.3,29.88,NNE,22,7.6,7.6,38,0.00,,---,0.00,VWS V14.01,2013-06-17 21:01:00,
2013-06-17 16:06:00,87.1,59.2,29.88,ENE,68,0.4,0.4,39,0.00,,---,0.00,VWS V14.01,2013-06-17 21:06:00,
2013-06-17 16:11:00,87.5,58.8,29.88,ENE,68,8.5,8.5,38,0.00,,---,0.00,VWS V14.01,2013-06-17 21:11:00,
2013-06-17 16:16:00,86.8,57.4,29.88,East,90,3.8,3.8,37,0.00,,---,0.00,VWS V14.01,2013-06-17 21:16:00,
2013-06-17 16:21:00,87.1,59.9,29.88,North,0,3.4,3.4,40,0.00,,---,0.00,VWS V14.01,2013-06-17 21:21:00,
2013-06-17 16:26:00,87.5,59.5,29.87,NW,315,0.7,0.7,39,0.00,,---,0.00,VWS V14.01,2013-06-17 21:26:00,
2013-06-17 16:31:00,87.8,60.5,29.87,WNW,292,0.4,0.4,40,0.00,,---,0.00,VWS V14.01,2013-06-17 21:31:00,
2013-06-17 16:36:00,87.8,59.1,29.87,WNW,292,3.4,3.4,38,0.00,,---,0.00,VWS V14.01,2013-06-17 21:36:00,
2013-06-17 16:41:00,87.5,58.8,29.87,ESE,112,0.2,0.2,38,0.00,,---,0.00,VWS V14.01,2013-06-17 21:41:00,
2013-06-17 16:46:00,87.3,59.3,29.87,NNE,22,1.1,1.1,39,0.00,,---,0.00,VWS V14.01,2013-06-17 21:46:00,
2013-06-17 16:51:00,87.1,59.2,29.87,NE,45,2.2,2.2,39,0.00,,---,0.00,VWS V14.01,2013-06-17 21:51:00,
2013-06-17 16:56:00,87.3,59.3,29.87,NNW,338,6.3,6.3,39,0.00,,---,0.00,VWS V14.01,2013-06-17 21:56:00,
2013-06-17 17:01:00,87.1,58.4,29.87,East,90,5.4,5.4,38,0.00,,---,0.00,VWS V14.01,2013-06-17 22:01:00,
2013-06-17 17:06:00,86.8,58.2,29.87,North,0,1.1,1.1,38,0.00,,---,0.00,VWS V14.01,2013-06-17 22:06:00,
2013-06-17 17:11:00,86.9,59.0,29.86,North,0,2.5,2.5,39,0.00,,---,0.00,VWS V14.01,2013-06-17 22:11:00,
2013-06-17 17:16:00,86.8,58.2,29.86,SE,135,0.4,0.4,38,0.00,,---,0.00,VWS V14.01,2013-06-17 22:16:00,
2013-06-17 17:21:00,86.9,59.7,29.86,ESE,112,0.2,0.2,40,0.00,,---,0.00,VWS V14.01,2013-06-17 22:21:00,
2013-06-17 17:26:00,86.9,59.7,29.85,North,0,0.2,0.2,40,0.00,,---,0.00,VWS V14.01,2013-06-17 22:26:00,
2013-06-17 17:31:00,86.9,59.0,29.85,East,90,1.1,1.1,39,0.00,,---,0.00,VWS V14.01,2013-06-17 22:31:00,
2013-06-17 17:36:00,86.9,58.3,29.85,ENE,68,0.2,1.8,38,0.00,,---,0.00,VWS V14.01,2013-06-17 22:36:00,
2013-06-17 17:41:00,87.3,60.0,29.85,NNE,22,0.9,0.9,40,0.00,,---,0.00,VWS V14.01,2013-06-17 22:41:00,
2013-06-17 17:46:00,87.3,59.3,29.85,ENE,68,2.9,2.9,39,0.00,,---,0.00,VWS V14.01,2013-06-17 22:46:00,
2013-06-17 17:51:00,87.1,59.2,29.85,NW,315,1.1,2.0,39,0.00,,---,0.00,VWS V14.01,2013-06-17 22:51:00,
2013-06-17 17:56:00,87.3,60.8,29.85,North,0,4.3,4.3,41,0.00,,---,0.00,VWS V14.01,2013-06-17 22:56:00,
2013-06-17 18:01:00,87.1,60.6,29.85,WNW,292,2.5,2.5,41,0.00,,---,0.00,VWS V14.01,2013-06-17 23:01:00,
2013-06-17 18:06:00,87.1,61.2,29.84,ESE,112,0.7,0.7,42,0.00,,---,0.00,VWS V14.01,2013-06-17 23:06:00,
2013-06-17 18:12:00,87.1,60.6,29.84,SE,135,2.7,2.7,41,0.00,,---,0.00,VWS V14.01,2013-06-17 23:12:00,
2013-06-17 18:17:00,87.1,60.6,29.84,NE,45,1.3,1.3,41,0.00,,---,0.00,VWS V14.01,2013-06-17 23:17:00,
2013-06-17 18:22:00,86.9,59.7,29.85,NW,315,1.6,1.6,40,0.00,,---,0.00,VWS V14.01,2013-06-17 23:22:00,
2013-06-17 18:27:00,87.1,60.6,29.84,North,0,2.9,2.9,41,0.00,,---,0.00,VWS V14.01,2013-06-17 23:27:00,
2013-06-17 18:32:00,87.1,59.2,29.85,NW,315,1.8,1.8,39,0.00,,---,0.00,VWS V14.01,2013-06-17 23:32:00,
2013-06-17 18:37:00,86.8,58.2,29.84,ENE,68,4.0,4.0,38,0.00,,---,0.00,VWS V14.01,2013-06-17 23:37:00,
2013-06-17 18:42:00,86.4,57.1,29.85,North,0,4.5,4.5,37,0.00,,---,0.00,VWS V14.01,2013-06-17 23:42:00,
2013-06-17 18:47:00,86.4,57.8,29.85,ESE,112,3.8,3.8,38,0.00,,---,0.00,VWS V14.01,2013-06-17 23:47:00,
2013-06-17 18:52:00,86.2,57.6,29.85,NE,45,0.4,0.9,38,0.00,,---,0.00,VWS V14.01,2013-06-17 23:52:00,
2013-06-17 18:57:00,86.2,57.6,29.85,NNW,338,1.1,1.1,38,0.00,,---,0.00,VWS V14.01,2013-06-17 23:57:00,
2013-06-17 19:02:00,86.2,58.4,29.85,NNE,22,0.7,0.7,39,0.00,,---,0.00,VWS V14.01,2013-06-18 00:02:00,
2013-06-17 19:07:00,86.4,58.5,29.85,NE,45,3.8,3.8,39,0.00,,---,0.00,VWS V14.01,2013-06-18 00:07:00,
2013-06-17 19:12:00,86.0,58.2,29.85,NE,45,3.4,3.4,39,0.00,,---,0.00,VWS V14.01,2013-06-18 00:12:00,
2013-06-17 19:17:00,85.7,58.6,29.85,East,90,3.8,3.8,40,0.00,,---,0.00,VWS V14.01,2013-06-18 00:17:00,
2013-06-17 19:22:00,85.5,58.5,29.85,ENE,68,1.6,1.6,40,0.00,,---,0.00,VWS V14.01,2013-06-18 00:22:00,
2013-06-17 19:27:00,85.3,58.3,29.85,East,90,3.8,3.8,40,0.00,,---,0.00,VWS V14.01,2013-06-18 00:27:00,
2013-06-17 19:32:00,85.0,58.0,29.85,East,90,2.7,2.7,40,0.00,,---,0.00,VWS V14.01,2013-06-18 00:32:00,
2013-06-17 19:37:00,84.6,57.6,29.85,ENE,68,4.0,4.0,40,0.00,,---,0.00,VWS V14.01,2013-06-18 00:37:00,
2013-06-17 19:42:00,84.4,58.2,29.85,NE,45,3.8,3.8,41,0.00,,---,0.00,VWS V14.01,2013-06-18 00:42:00,
2013-06-17 19:47:00,84.2,58.0,29.85,North,0,1.8,1.8,41,0.00,,---,0.00,VWS V14.01,2013-06-18 00:47:00,
2013-06-17 19:52:00,84.1,58.5,29.85,NW,315,2.2,2.2,42,0.00,,---,0.00,VWS V14.01,2013-06-18 00:52:00,
2013-06-17 19:58:00,83.9,58.4,29.84,ENE,68,1.8,1.8,42,0.00,,---,0.00,VWS V14.01,2013-06-18 00:58:00,
2013-06-17 20:03:00,83.7,58.2,29.85,NE,45,5.4,5.4,42,0.00,,---,0.00,VWS V14.01,2013-06-18 01:03:00,
2013-06-17 20:08:00,83.3,57.8,29.84,ENE,68,7.6,7.6,42,0.00,,---,0.00,VWS V14.01,2013-06-18 01:08:00,
2013-06-17 20:13:00,83.2,57.8,29.85,ESE,112,1.1,1.1,42,0.00,,---,0.00,VWS V14.01,2013-06-18 01:13:00,
2013-06-17 20:18:00,82.8,58.0,29.85,NE,45,4.0,4.0,43,0.00,,---,0.00,VWS V14.01,2013-06-18 01:18:00,
2013-06-17 20:23:00,82.4,58.3,29.85,ENE,68,3.4,3.4,44,0.00,,---,0.00,VWS V14.01,2013-06-18 01:23:00,
2013-06-17 20:28:00,82.1,58.0,29.85,NNW,338,5.6,5.6,44,0.00,,---,0.00,VWS V14.01,2013-06-18 01:28:00,
2013-06-17 20:33:00,81.7,58.3,29.85,NE,45,3.6,3.6,45,0.00,,---,0.00,VWS V14.01,2013-06-18 01:33:00,
2013-06-17 20:38:00,81.4,58.0,29.85,East,90,4.7,4.7,45,0.00,,---,0.00,VWS V14.01,2013-06-18 01:38:00,
2013-06-17 20:43:00,81.0,58.3,29.85,North,0,3.1,3.1,46,0.00,,---,0.00,VWS V14.01,2013-06-18 01:43:00,
2013-06-17 20:48:00,80.6,57.9,29.85,ENE,68,2.5,2.5,46,0.00,,---,0.00,VWS V14.01,2013-06-18 01:48:00,
2013-06-17 20:53:00,80.5,58.4,29.86,North,0,3.6,3.6,47,0.00,,---,0.00,VWS V14.01,2013-06-18 01:53:00,
2013-06-17 20:58:00,80.3,58.2,29.86,North,0,4.7,4.7,47,0.00,,---,0.00,VWS V14.01,2013-06-18 01:58:00,
2013-06-17 21:03:00,79.9,57.9,29.86,NE,45,3.4,3.4,47,0.00,,---,0.00,VWS V14.01,2013-06-18 02:03:00,
2013-06-17 21:08:00,79.9,57.9,29.86,NE,45,3.4,3.4,47,0.00,,---,0.00,VWS V14.01,2013-06-18 02:08:00,
2013-06-17 21:13:00,79.6,58.2,29.86,North,0,1.1,1.1,48,0.00,,---,0.00,VWS V14.01,2013-06-18 02:13:00,
2013-06-17 21:18:00,79.4,58.0,29.86,ENE,68,2.0,2.7,48,0.00,,---,0.00,VWS V14.01,2013-06-18 02:18:00,
2013-06-17 21:23:00,79.2,57.8,29.86,North,0,2.5,2.5,48,0.00,,---,0.00,VWS V14.01,2013-06-18 02:23:00,
2013-06-17 21:28:00,79.0,57.7,29.86,North,0,5.4,5.4,48,0.00,,---,0.00,VWS V14.01,2013-06-18 02:28:00,
2013-06-17 21:33:00,78.8,57.5,29.86,NNE,22,2.2,2.2,48,0.00,,---,0.00,VWS V14.01,2013-06-18 02:33:00,
2013-06-17 21:38:00,78.7,57.4,29.87,NNE,22,4.9,4.9,48,0.00,,---,0.00,VWS V14.01,2013-06-18 02:38:00,
2013-06-17 21:43:00,78.5,57.2,29.87,NNE,22,2.5,2.5,48,0.00,,---,0.00,VWS V14.01,2013-06-18 02:43:00,
2013-06-17 21:48:00,78.5,57.2,29.88,East,90,3.1,3.1,48,0.00,,---,0.00,VWS V14.01,2013-06-18 02:48:00,
2013-06-17 21:53:00,78.3,57.0,29.88,NE,45,0.7,0.7,48,0.00,,---,0.00,VWS V14.01,2013-06-18 02:53:00,
2013-06-17 21:58:00,77.9,56.7,29.88,East,90,3.4,3.4,48,0.00,,---,0.00,VWS V14.01,2013-06-18 02:58:00,
2013-06-17 22:03:00,77.8,57.1,29.89,NNE,22,1.8,1.8,49,0.00,,---,0.00,VWS V14.01,2013-06-18 03:03:00,
2013-06-17 22:08:00,77.4,56.8,29.89,North,0,0.2,0.2,49,0.00,,---,0.00,VWS V14.01,2013-06-18 03:08:00,
2013-06-17 22:13:00,77.2,56.6,29.89,NNE,22,0.7,0.7,49,0.00,,---,0.00,VWS V14.01,2013-06-18 03:13:00,
2013-06-17 22:18:00,77.0,57.0,29.89,ENE,68,2.9,2.9,50,0.00,,---,0.00,VWS V14.01,2013-06-18 03:18:00,
2013-06-17 22:23:00,76.7,56.7,29.89,North,0,6.7,6.7,50,0.00,,---,0.00,VWS V14.01,2013-06-18 03:23:00,
2013-06-17 22:28:00,76.5,56.5,29.89,NNE,22,2.5,2.5,50,0.00,,---,0.00,VWS V14.01,2013-06-18 03:28:00,
2013-06-17 22:33:00,76.1,56.7,29.89,ENE,68,4.9,4.9,51,0.00,,---,0.00,VWS V14.01,2013-06-18 03:33:00,
2013-06-17 22:38:00,76.0,56.6,29.89,ENE,68,5.4,5.4,51,0.00,,---,0.00,VWS V14.01,2013-06-18 03:38:00,
2013-06-17 22:43:00,75.6,56.2,29.90,ENE,68,6.3,6.3,51,0.00,,---,0.00,VWS V14.01,2013-06-18 03:43:00,
2013-06-17 22:48:00,75.4,56.0,29.90,East,90,5.1,5.1,51,0.00,,---,0.00,VWS V14.01,2013-06-18 03:48:00,
2013-06-17 22:53:00,75.2,55.8,29.90,NW,315,2.9,2.9,51,0.00,,---,0.00,VWS V14.01,2013-06-18 03:53:00,
2013-06-17 22:58:00,75.1,55.8,29.90,ENE,68,4.3,4.3,51,0.00,,---,0.00,VWS V14.01,2013-06-18 03:58:00,
2013-06-17 23:01:00,74.9,55.6,29.90,North,0,3.4,3.4,51,0.00,,---,0.00,VWS V14.01,2013-06-18 04:01:00,
2013-06-17 23:02:00,74.9,56.1,29.90,NE,45,3.6,3.6,52,0.00,,---,0.00,VWS V14.01,2013-06-18 04:02:00,
2013-06-17 23:04:00,74.9,56.1,29.90,ESE,112,7.4,7.4,52,0.00,,---,0.00,VWS V14.01,2013-06-18 04:04:00,
2013-06-17 23:09:00,74.5,55.7,29.90,ESE,112,3.1,3.1,52,0.00,,---,0.00,VWS V14.01,2013-06-18 04:09:00,
2013-06-17 23:10:00,74.5,55.7,29.90,East,90,4.0,4.0,52,0.00,,---,0.00,VWS V14.01,2013-06-18 04:10:00,
2013-06-17 23:15:00,74.3,56.1,29.90,NE,45,1.8,1.8,53,0.00,,---,0.00,VWS V14.01,2013-06-18 04:15:00,
2013-06-17 23:21:00,74.2,56.0,29.90,East,90,2.5,2.5,53,0.00,,---,0.00,VWS V14.01,2013-06-18 04:21:00,
2013-06-17 23:26:00,73.8,55.6,29.90,NNE,22,4.0,4.0,53,0.00,,---,0.00,VWS V14.01,2013-06-18 04:26:00,
2013-06-17 23:31:00,73.6,56.0,29.90,East,90,2.0,2.0,54,0.00,,---,0.00,VWS V14.01,2013-06-18 04:31:00,
2013-06-17 23:36:00,73.4,55.8,29.90,ESE,112,3.1,3.1,54,0.00,,---,0.00,VWS V14.01,2013-06-18 04:36:00,
2013-06-17 23:41:00,73.4,55.8,29.90,NE,45,0.9,0.9,54,0.00,,---,0.00,VWS V14.01,2013-06-18 04:41:00,
2013-06-17 23:46:00,73.3,55.7,29.89,NE,45,4.7,4.7,54,0.00,,---,0.00,VWS V14.01,2013-06-18 04:46:00,
2013-06-17 23:51:00,73.1,55.5,29.90,NE,45,6.0,6.0,54,0.00,,---,0.00,VWS V14.01,2013-06-18 04:51:00,
2013-06-17 23:56:00,72.9,55.8,29.90,ENE,68,1.3,1.3,55,0.00,,---,0.00,VWS V14.01,2013-06-18 04:56:00,